Flight Track Log - Related Links

Times and Time Zones

All times are in EDT time to prevent confusion due to time zone crossing. See the ASQ4537 flight status page for this flight to view local times or setup timezone preferences in your user account.

Time Position Orientation Groundspeed Altitude Reporting Facility
EDT Latitude Longitude Course Direction KTS MPH feet Rate Location/Type
Wed 08:48:44 AM 40.7333 -74.1333 242° Southwest 172 198 1,700  Level New York TRACON
Wed 08:49:44 AM 40.7833 -74.1333 360° North 257 296 2,800 1,800 Climbing New York TRACON
Wed 08:50:44 AM 40.7667 -74.2167 255° West 253 291 5,300 2,305 Climbing New York TRACON
Wed 08:51:00 AM 40.5593 -74.6645 270° West  Level Estimated
Wed 08:52:00 AM 40.5256 -74.7881 237° Southwest  Level Estimated
Wed 08:52:15 AM 40.7531 -74.3569 263° West 264 304 8,600  Level New York Center
Wed 08:53:00 AM 40.4919 -74.9116 242° Southwest  Level Estimated
Wed 08:53:15 AM 40.7439 -74.4469 262° West 264 304 10,400  Level New York Center
Wed 08:54:15 AM 40.7344 -74.5503 263° West 281 323 12,000 1,750 Climbing New York Center
Wed 08:55:15 AM 40.7242 -74.6703 264° West 293 337 13,900 1,700 Climbing New York Center
Wed 08:56:15 AM 40.7150 -74.7656 263° West 298 343 15,400 1,100 Climbing New York Center
Wed 08:57:15 AM 40.7022 -74.8908 262° West 312 359 16,100 550 Climbing New York Center
Wed 08:58:15 AM 40.6894 -75.0186 263° West 334 384 16,500 700 Climbing New York Center
Wed 08:59:15 AM 40.6558 -75.1397 250° West 354 407 17,500 1,050 Climbing New York Center
Wed 09:00:15 AM 40.6058 -75.2514 239° Southwest 354 407 18,600 900 Climbing New York Center
Wed 09:01:15 AM 40.5603 -75.3494 239° Southwest 354 407 19,300 750 Climbing New York Center
Wed 09:02:15 AM 40.5100 -75.4633 240° Southwest 354 407 20,100 750 Climbing New York Center
Wed 09:03:15 AM 40.4575 -75.5744 238° Southwest 354 407 20,800 750 Climbing New York Center
Wed 09:04:15 AM 40.4094 -75.6800 239° Southwest 354 407 21,600 700 Climbing New York Center
Wed 09:05:15 AM 40.3592 -75.7883 239° Southwest 354 407 22,200 600 Climbing New York Center
Wed 09:06:15 AM 40.3064 -75.9014 239° Southwest 349 402 22,800 650 Climbing New York Center
Wed 09:07:15 AM 40.2492 -76.0169 237° Southwest 362 417 23,500 700 Climbing New York Center
Wed 09:08:15 AM 40.1939 -76.1322 238° Southwest 367 422 24,200 750 Climbing New York Center
Wed 09:09:15 AM 40.1428 -76.2478 240° Southwest 372 428 25,000 850 Climbing New York Center
Wed 09:10:15 AM 40.0894 -76.3631 239° Southwest 372 428 25,900 950 Climbing New York Center
Wed 09:11:15 AM 40.0403 -76.4758 240° Southwest 372 428 26,900 950 Climbing New York Center
Wed 09:12:15 AM 39.9872 -76.5797 236° Southwest 364 419 27,800 900 Climbing New York Center
Wed 09:13:15 AM 39.9381 -76.6867 239° Southwest 364 419 28,700 900 Climbing New York Center
Wed 09:14:15 AM 39.8867 -76.7961 239° Southwest 359 413 29,600 960 Climbing New York Center
Wed 09:16:10 AM 39.7825 -77.0117 238° Southwest 352 405 31,500 903 Climbing Washington Center
Wed 09:17:21 AM 39.7331 -77.1186 239° Southwest 352 405 32,400 962 Climbing Washington Center
Wed 09:18:21 AM 39.6731 -77.2469 239° Southwest 352 405 33,600 1,082 Climbing Washington Center
Wed 09:19:23 AM 39.6236 -77.3536 239° Southwest 352 405 34,600 934 Climbing Washington Center
Wed 09:20:23 AM 39.5742 -77.4544 238° Southwest 352 405 35,500 712 Climbing Washington Center
Wed 09:21:21 AM 39.5247 -77.5608 239° Southwest 347 399 36,000 254 Climbing Washington Center
Wed 09:22:21 AM 39.4728 -77.6669 238° Southwest 347 399 36,000  Level Washington Center
Wed 09:23:22 AM 39.4208 -77.7783 239° Southwest 359 413 36,000  Level Washington Center
Wed 09:24:22 AM 39.3667 -77.8950 239° Southwest 365 420 36,000  Level Washington Center
Wed 09:25:22 AM 39.3206 -78.0169 244° Southwest 376 433 36,000  Level Washington Center
Wed 09:26:23 AM 39.2722 -78.1386 243° Southwest 382 440 36,000  Level Washington Center
Wed 09:27:23 AM 39.2214 -78.2600 242° Southwest 387 445 36,000  Level Washington Center
Wed 09:28:21 AM 39.1728 -78.3814 243° Southwest 387 445 36,000  Level Washington Center
Wed 09:29:21 AM 39.1242 -78.5000 242° Southwest 387 445 36,000  Level Washington Center
Wed 09:30:22 AM 39.0753 -78.6236 243° Southwest 387 445 36,000  Level Washington Center
Wed 09:31:23 AM 39.0264 -78.7447 243° Southwest 387 445 36,000  Level Washington Center
Wed 09:32:21 AM 38.9772 -78.8625 242° Southwest 387 445 36,000  Level Washington Center
Wed 09:33:21 AM 38.9281 -78.9833 242° Southwest 382 440 36,000  Level Washington Center
Wed 09:34:22 AM 38.8789 -79.1036 242° Southwest 382 440 36,000  Level Washington Center
Wed 09:35:24 AM 38.8356 -79.2242 245° Southwest 382 440 36,000  Level Washington Center
Wed 09:36:21 AM 38.8108 -79.3481 256° West 377 434 36,000  Level Washington Center
Wed 09:37:22 AM 38.7881 -79.4775 257° West 372 428 36,000  Level Washington Center
Wed 09:38:23 AM 38.7714 -79.6017 260° West 380 437 36,000  Level Washington Center
Wed 09:39:21 AM 38.7464 -79.7283 256° West 385 443 36,000  Level Washington Center
Wed 09:40:23 AM 38.7250 -79.8575 258° West 385 443 36,000  Level Washington Center
Wed 09:41:53 AM 38.6853 -80.0422 255° West 369 425 36,000  Level Indianapolis Center
Wed 09:42:55 AM 38.6625 -80.1686 257° West 366 421 36,000  Level Indianapolis Center
Wed 09:43:57 AM 38.6339 -80.3186 256° West 363 418 36,000  Level Indianapolis Center
Wed 09:44:59 AM 38.6097 -80.4450 256° West 365 420 36,000  Level Indianapolis Center
Wed 09:46:01 AM 38.5869 -80.5717 257° West 364 419 36,000  Level Indianapolis Center
Wed 09:47:03 AM 38.5611 -80.6969 255° West 364 419 36,000  Level Indianapolis Center
Wed 09:48:05 AM 38.5378 -80.8222 257° West 363 418 36,000  Level Indianapolis Center
Wed 09:49:07 AM 38.5133 -80.9478 256° West 362 417 36,000  Level Indianapolis Center
Wed 09:50:09 AM 38.4889 -81.0731 256° West 361 415 36,000  Level Indianapolis Center
Wed 09:51:11 AM 38.4594 -81.2214 256° West 359 413 36,000  Level Indianapolis Center
Wed 09:52:12 AM 38.4347 -81.3458 256° West 359 413 36,000  Level Indianapolis Center
Wed 09:53:14 AM 38.4100 -81.4706 256° West 360 414 36,000  Level Indianapolis Center
Wed 09:54:16 AM 38.3847 -81.5947 255° West 359 413 36,000  Level Indianapolis Center
Wed 09:55:18 AM 38.3597 -81.7172 255° West 355 409 36,000  Level Indianapolis Center
Wed 09:56:20 AM 38.3303 -81.8383 253° West 355 409 36,000  Level Indianapolis Center
Wed 09:57:22 AM 38.2975 -81.9578 251° West 357 411 36,000  Level Indianapolis Center
Wed 09:58:24 AM 38.2633 -82.0761 250° West 355 409 36,000  Level Indianapolis Center
Wed 09:59:27 AM 38.2186 -82.1903 244° Southwest 366 421 36,000  Level Indianapolis Center
Wed 10:00:29 AM 38.1564 -82.3228 239° Southwest 364 419 36,000  Level Indianapolis Center
Wed 10:01:31 AM 38.1061 -82.4331 240° Southwest 362 417 36,000  Level Indianapolis Center
Wed 10:02:33 AM 38.0500 -82.5547 240° Southwest 364 419 36,000  Level Indianapolis Center
Wed 10:03:35 AM 38.0175 -82.6750 251° West 365 420 36,000  Level Indianapolis Center
Wed 10:04:37 AM 37.9847 -82.7939 251° West 358 412 36,000  Level Indianapolis Center
Wed 10:05:39 AM 37.9525 -82.9156 251° West 363 418 36,000  Level Indianapolis Center
Wed 10:06:41 AM 37.9206 -83.0358 251° West 362 417 36,000  Level Indianapolis Center
Wed 10:07:43 AM 37.8872 -83.1564 251° West 363 418 36,000  Level Indianapolis Center
Wed 10:08:45 AM 37.8492 -83.2964 251° West 361 415 36,000  Level Indianapolis Center
Wed 10:09:47 AM 37.8158 -83.4144 250° West 359 413 36,000  Level Indianapolis Center
Wed 10:10:49 AM 37.7831 -83.5328 251° West 357 411 36,000  Level Indianapolis Center
Wed 10:11:51 AM 37.7506 -83.6506 251° West 357 411 36,000  Level Indianapolis Center
Wed 10:12:53 AM 37.7172 -83.7692 250° West 358 412 36,000  Level Indianapolis Center
Wed 10:13:55 AM 37.6786 -83.9056 250° West 355 409 36,000  Level Indianapolis Center
Wed 10:14:57 AM 37.6453 -84.0222 250° West 355 409 36,000  Level Indianapolis Center
Wed 10:15:59 AM 37.6119 -84.1392 250° West 355 409 36,000  Level Indianapolis Center
Wed 10:17:01 AM 37.5783 -84.2564 250° West 356 410 36,000  Level Indianapolis Center
Wed 10:18:03 AM 37.5456 -84.3731 251° West 354 407 36,000  Level Indianapolis Center
Wed 10:19:05 AM 37.5058 -84.5100 250° West 356 410 36,000  Level Indianapolis Center
Wed 10:20:07 AM 37.4714 -84.6278 250° West 358 412 36,000  Level Indianapolis Center
Wed 10:21:09 AM 37.4383 -84.7456 251° West 357 411 36,000  Level Indianapolis Center
Wed 10:22:11 AM 37.4033 -84.8633 250° West 358 412 36,000  Level Indianapolis Center
Wed 10:23:13 AM 37.3703 -84.9786 250° West 353 406 36,000  Level Indianapolis Center
Wed 10:24:15 AM 37.3306 -85.1128 250° West 351 404 36,000  Level Indianapolis Center
Wed 10:25:17 AM 37.2964 -85.2275 250° West 351 404 36,000  Level Indianapolis Center
Wed 10:26:19 AM 37.2619 -85.3439 250° West 353 406 36,000  Level Indianapolis Center
Wed 10:27:21 AM 37.2267 -85.4583 249° West 351 404 36,000  Level Indianapolis Center
Wed 10:28:23 AM 37.1950 -85.5700 250° West 352 405 36,000  Level Indianapolis Center
Wed 10:29:25 AM 37.1547 -85.7011 249° West 345 397 36,000  Level Indianapolis Center
Wed 10:30:27 AM 37.1203 -85.8167 250° West 350 403 36,000  Level Indianapolis Center
Wed 10:31:29 AM 37.0856 -85.9314 249° West 351 404 36,000  Level Indianapolis Center
Wed 10:32:31 AM 37.0503 -86.0469 249° West 353 406 36,000  Level Indianapolis Center
Wed 10:33:33 AM 37.0156 -86.1594 249° West 346 398 36,000  Level Indianapolis Center
Wed 10:34:35 AM 36.9814 -86.2711 249° West 342 394 36,000  Level Indianapolis Center
Wed 10:35:37 AM 36.9456 -86.3853 249° West 348 400 36,000  Level Indianapolis Center
Wed 10:36:39 AM 36.8958 -86.5183 245° Southwest 357 411 36,000  Level Indianapolis Center
Wed 10:37:41 AM 36.8472 -86.6278 241° Southwest 360 414 36,000  Level Indianapolis Center
Wed 10:38:43 AM 36.7981 -86.7381 241° Southwest 361 415 36,000  Level Indianapolis Center
Wed 10:39:45 AM 36.7506 -86.8478 242° Southwest 359 413 36,000  Level Indianapolis Center
Wed 10:40:47 AM 36.7017 -86.9569 241° Southwest 359 413 36,000  Level Indianapolis Center
Wed 10:41:46 AM 36.6547 -87.0669 242° Southwest 363 418 36,000  Level Memphis Center
Wed 10:42:46 AM 36.6078 -87.1775 242° Southwest 363 418 36,000  Level Memphis Center
Wed 10:43:46 AM 36.5561 -87.2856 239° Southwest 363 418 36,000  Level Memphis Center
Wed 10:44:46 AM 36.5069 -87.3983 242° Southwest 363 418 36,000 -150 Level Memphis Center
Wed 10:45:46 AM 36.4533 -87.5139 240° Southwest 363 418 35,700 -595 Descending Memphis Center
Wed 10:46:47 AM 36.4056 -87.6186 240° Southwest 357 411 34,800 -1,100 Descending Memphis Center
Wed 10:47:46 AM 36.3578 -87.7233 240° Southwest 357 411 33,500 -1,250 Descending Memphis Center
Wed 10:48:47 AM 36.3100 -87.8278 240° Southwest 357 411 32,300 -1,150 Descending Memphis Center
Wed 10:49:46 AM 36.2600 -87.9375 241° Southwest 357 411 31,200 -1,160 Descending Memphis Center
Wed 10:50:46 AM 36.2100 -88.0469 241° Southwest 363 418 30,000 -1,200 Descending Memphis Center
Wed 10:51:46 AM 36.1597 -88.1514 239° Southwest 363 418 28,800 -1,200 Descending Memphis Center
Wed 10:52:46 AM 36.1056 -88.2683 240° Southwest 373 429 27,600 -1,190 Descending Memphis Center
Wed 10:53:47 AM 36.0492 -88.3853 239° Southwest 394 453 26,400 -1,190 Descending Memphis Center
Wed 10:54:47 AM 35.9986 -88.4969 241° Southwest 388 447 25,200 -1,261 Descending Memphis Center
Wed 10:55:46 AM 35.9500 -88.6031 241° Southwest 376 433 23,900 -1,200 Descending Memphis Center
Wed 10:56:47 AM 35.8975 -88.7092 239° Southwest 376 433 22,800 -1,200 Descending Memphis Center
Wed 10:57:46 AM 35.8467 -88.8206 241° Southwest 371 427 21,500 -1,261 Descending Memphis Center
Wed 10:58:46 AM 35.7958 -88.9289 240° Southwest 371 427 20,300 -1,200 Descending Memphis Center
Wed 10:59:46 AM 35.7450 -89.0319 239° Southwest 364 419 19,100 -1,200 Descending Memphis Center
Wed 11:00:46 AM 35.6894 -89.1200 232° Southwest 358 412 17,900 -1,150 Descending Memphis Center
Wed 11:01:46 AM 35.6278 -89.2050 228° Southwest 339 390 16,800 -1,339 Descending Memphis Center
Wed 11:02:47 AM 35.5658 -89.2850 226° Southwest 326 375 15,200 -1,650 Descending Memphis Center
Wed 11:03:46 AM 35.4997 -89.3675 225° Southwest 331 381 13,500 -1,714 Descending Memphis Center
Wed 11:04:46 AM 35.4358 -89.4497 226° Southwest 331 381 11,800 -1,500 Descending Memphis Center
Wed 11:05:46 AM 35.3819 -89.5217 227° Southwest 326 375 10,500 -900 Descending Memphis Center
Wed 11:06:46 AM 35.3303 -89.5858 225° Southwest 298 343 10,000 -600 Descending Memphis Center
Wed 11:07:46 AM 35.2806 -89.6500 227° Southwest 277 319 9,300 -496 Descending Memphis Center
Wed 11:08:47 AM 35.2350 -89.7089 227° Southwest 251 289 9,000 -150 Descending Memphis Center
Wed 11:09:46 AM 35.1875 -89.7678 225° Southwest 246 283 9,000 -101 Level Memphis Center
Wed 11:10:46 AM 35.1439 -89.8239 226° Southwest 241 277 8,800 -496 Descending Memphis Center
Wed 11:11:47 AM 35.0919 -89.8672 214° Southwest 233 268 8,000 -1,100 Descending Memphis Center
Wed 11:12:46 AM 35.0250 -89.8650 178° South 222 255 6,600 -1,350 Descending Memphis Center
Wed 11:13:47 AM 34.9583 -89.8656 180° South 233 268 5,300 -1,587 Descending Memphis Center
Wed 11:14:47 AM 34.8936 -89.8658 180° South 238 274 3,400 -1,600 Descending Memphis Center
Wed 11:15:47 AM 34.8606 -89.9192 233° Southwest 192 221 2,100 -542 Descending Memphis Center
Wed 11:17:22 AM 34.9000 -89.9667 315° West 163 188 2,000 -75 Descending KMEM
Wed 11:18:28 AM 34.9500 -89.9667 360° North 162 186 1,900 -381 Descending KMEM
Wed 11:19:28 AM 34.9833 -89.9667 360° North 114 131 1,200 -650 Descending KMEM
Wed 11:20:28 AM 35.0167 -89.9667 360° North 124 143 600 -600 Descending KMEM

Login

Don't have an account? Register now (free) for customized features, flight alerts, and more!